Time;durP1;ratioP1;P1;durP2;ratioP2;P2;SDS_P1;SDS_P2;PMS_P1;PMS_P2;Temp;Humidity;BMP_temperature;BMP_pressure;BME280_temperature;BME280_humidity;BME280_pressure;Samples;Min_cycle;Max_cycle;Signal;HPM_P1;HPM_P2
2022/03/08 06:26:22;;;;;;;;;;;;;;;2.04;100.00;98859.16;4836778;29;20425;-66
2022/03/08 06:28:50;;;;;;;;;;;;;;;2.06;100.00;98864.34;4837253;29;20391;-66
2022/03/08 06:31:17;;;;;;;;;;;;;;;2.01;100.00;98870.84;4845423;29;19986;-66
2022/03/08 06:33:44;;;;;;;;;;;;;;;2.00;100.00;98870.03;4844598;29;19949;-66
2022/03/08 06:36:12;;;;;;;;;;;;;;;1.97;100.00;98883.69;4843871;29;19956;-66
2022/03/08 06:38:39;;;;;;;;;;;;;;;2.05;100.00;98884.81;4843891;29;19959;-66
2022/03/08 06:41:07;;;;;;;;;;;;;;;1.99;100.00;98881.41;4857064;29;19965;-66
2022/03/08 06:43:34;;;;;;;;;;;;;;;2.03;100.00;98889.84;4850516;29;20294;-65
2022/03/08 06:46:02;;;;;;;;;;;;;;;2.05;100.00;98890.31;4847382;29;19959;-66
2022/03/08 06:48:32;;;;;;;;;;;;;;;2.07;100.00;98891.63;4845618;29;19973;-66
2022/03/08 06:50:59;;;;;;;;;;;;;;;2.13;100.00;98884.78;4846635;29;20226;-66
2022/03/08 06:53:27;;;;;;;;;;;;;;;2.33;100.00;98881.31;4846734;29;19964;-65
2022/03/08 06:55:55;;;;;;;;;;;;;;;2.26;100.00;98894.00;4841651;29;19956;-66
2022/03/08 06:58:22;;;;;;;;;;;;;;;2.36;97.61;98891.69;4840859;29;19962;-66
2022/03/08 07:00:49;;;;;;;;;;;;;;;2.41;100.00;98893.47;4847263;29;19964;-66
2022/03/08 07:03:17;;;;;;;;;;;;;;;2.41;92.28;98897.03;4846094;29;19956;-65
2022/03/08 07:05:46;;;;;;;;;;;;;;;2.48;90.07;98899.28;4847773;29;19961;-65
2022/03/08 07:08:13;;;;;;;;;;;;;;;2.60;86.04;98899.41;4851188;29;19974;-65
2022/03/08 07:10:41;;;;;;;;;;;;;;;2.62;82.56;98899.88;4849229;29;19960;-65
2022/03/08 07:13:08;;;;;;;;;;;;;;;2.69;78.24;98907.66;4848407;29;19956;-65
2022/03/08 07:15:35;;;;;;;;;;;;;;;2.75;81.39;98906.31;4847538;29;19958;-65
2022/03/08 07:18:03;;;;;;;;;;;;;;;2.80;82.29;98898.66;4849409;29;19949;-65
2022/03/08 07:20:30;;;;;;;;;;;;;;;2.79;75.52;98901.75;4845391;29;19962;-65
2022/03/08 07:22:57;;;;;;;;;;;;;;;2.97;72.15;98908.81;4840722;29;19956;-65
2022/03/08 07:25:25;;;;;;;;;;;;;;;2.94;72.41;98909.47;4858617;29;19982;-65
2022/03/08 07:27:52;;;;;;;;;;;;;;;2.93;69.82;98900.38;4853516;29;19983;-65
2022/03/08 07:30:19;;;;;;;;;;;;;;;3.00;67.98;98908.13;4857976;29;19958;-65
2022/03/08 07:32:49;;;;;;;;;;;;;;;2.99;67.77;98904.56;4861860;29;19951;-65
2022/03/08 07:35:17;;;;;;;;;;;;;;;3.00;70.17;98910.91;4863765;29;19962;-65
2022/03/08 07:37:45;;;;;;;;;;;;;;;3.03;69.15;98911.03;4865084;29;19957;-65
2022/03/08 07:40:12;;;;;;;;;;;;;;;3.09;68.63;98906.13;4866217;29;19954;-66
2022/03/08 07:42:39;;;;;;;;;;;;;;;3.10;72.44;98914.09;4865562;29;19953;-66
2022/03/08 07:45:07;;;;;;;;;;;;;;;3.07;72.96;98920.28;4865878;29;19950;-66
2022/03/08 07:47:35;;;;;;;;;;;;;;;3.09;73.24;98922.72;4862820;29;19977;-66
2022/03/08 07:50:03;;;;;;;;;;;;;;;3.23;72.94;98928.78;4859446;29;20461;-66
2022/03/08 07:52:30;;;;;;;;;;;;;;;3.33;70.11;98930.38;4863872;29;20884;-66
2022/03/08 07:54:58;;;;;;;;;;;;;;;3.38;70.63;98932.94;4862502;29;19950;-66
2022/03/08 07:57:25;;;;;;;;;;;;;;;3.37;68.48;98934.09;4865353;29;19961;-66
2022/03/08 08:00:00;;;;;;;;;;;;;;;3.41;70.91;98930.31;4863588;29;19959;-66
2022/03/08 08:02:27;;;;;;;;;;;;;;;3.46;66.92;98927.34;4861774;29;19961;-66
2022/03/08 08:04:56;;;;;;;;;;;;;;;3.53;66.17;98926.81;4865691;29;19959;-66
2022/03/08 08:07:23;;;;;;;;;;;;;;;3.55;64.95;98932.81;4865670;29;19966;-66
2022/03/08 08:09:50;;;;;;;;;;;;;;;3.39;62.45;98940.09;4861647;29;19960;-66
2022/03/08 08:12:18;;;;;;;;;;;;;;;3.46;63.69;98937.59;4860658;29;20023;-66
2022/03/08 08:14:45;;;;;;;;;;;;;;;3.54;65.93;98939.50;4863714;29;19955;-66
2022/03/08 08:17:12;;;;;;;;;;;;;;;3.60;60.36;98938.16;4864484;29;19966;-66
2022/03/08 08:19:41;;;;;;;;;;;;;;;3.59;61.94;98940.13;4860399;29;19970;-66
2022/03/08 08:22:08;;;;;;;;;;;;;;;3.63;59.45;98938.28;4854841;29;19966;-66
2022/03/08 08:24:35;;;;;;;;;;;;;;;3.61;61.82;98950.84;4850632;29;19982;-66
2022/03/08 08:27:03;;;;;;;;;;;;;;;3.67;59.68;98955.00;4853061;29;20257;-66
2022/03/08 08:29:30;;;;;;;;;;;;;;;3.79;54.59;98950.34;4859565;29;19953;-66
2022/03/08 08:31:58;;;;;;;;;;;;;;;3.76;57.54;98961.31;4861472;29;19955;-66
2022/03/08 08:34:25;;;;;;;;;;;;;;;3.73;57.93;98956.44;4857855;29;19967;-66
2022/03/08 08:36:54;;;;;;;;;;;;;;;3.66;59.95;98953.41;4860344;29;19974;-66
2022/03/08 08:39:21;;;;;;;;;;;;;;;3.83;55.81;98956.84;4860142;29;19961;-66
2022/03/08 08:41:48;;;;;;;;;;;;;;;3.88;55.34;98953.06;4858593;29;19951;-66
2022/03/08 08:44:15;;;;;;;;;;;;;;;3.81;59.77;98956.38;4862855;29;19969;-66
2022/03/08 08:46:43;;;;;;;;;;;;;;;3.80;56.26;98954.75;4854624;29;19989;-66
2022/03/08 08:49:10;;;;;;;;;;;;;;;3.91;56.28;98961.47;4844465;29;19970;-66
2022/03/08 08:51:38;;;;;;;;;;;;;;;3.94;54.80;98960.00;4857446;29;19949;-66
2022/03/08 08:54:05;;;;;;;;;;;;;;;3.93;53.85;98969.47;4864028;29;20347;-66
2022/03/08 08:56:35;;;;;;;;;;;;;;;3.95;54.04;98961.63;4851138;29;19959;-66
2022/03/08 08:59:03;;;;;;;;;;;;;;;3.94;53.84;98963.59;4861048;29;19963;-66
2022/03/08 09:01:32;;;;;;;;;;;;;;;3.86;54.46;98969.19;4853443;29;19965;-66
2022/03/08 09:04:03;;;;;;;;;;;;;;;3.97;53.38;98973.16;4863897;29;20372;-66
2022/03/08 09:06:31;;;;;;;;;;;;;;;4.03;53.47;98962.72;4868031;29;19965;-66
2022/03/08 09:09:00;;;;;;;;;;;;;;;4.04;55.12;98956.81;4863945;29;19974;-66
2022/03/08 09:11:28;;;;;;;;;;;;;;;4.23;52.35;98951.59;4863223;29;19960;-66
2022/03/08 09:13:56;;;;;;;;;;;;;;;4.24;51.63;98956.00;4861609;29;19955;-66
2022/03/08 09:16:24;;;;;;;;;;;;;;;4.24;54.24;98958.75;4864047;29;19948;-66
2022/03/08 09:18:51;;;;;;;;;;;;;;;4.23;53.63;98953.56;4863778;29;19956;-66
2022/03/08 09:21:18;;;;;;;;;;;;;;;4.35;53.16;98954.41;4863018;29;19963;-66
2022/03/08 09:23:46;;;;;;;;;;;;;;;4.42;52.55;98964.94;4872782;29;19954;-66
2022/03/08 09:26:13;;;;;;;;;;;;;;;4.51;52.21;98960.94;4866422;29;19992;-65
2022/03/08 09:28:40;;;;;;;;;;;;;;;4.59;54.01;98960.03;4860662;29;19971;-66
2022/03/08 09:31:08;;;;;;;;;;;;;;;4.70;55.55;98976.19;4863756;29;19954;-66
2022/03/08 09:33:35;;;;;;;;;;;;;;;4.69;51.27;98969.06;4864490;29;19956;-66
2022/03/08 09:36:04;;;;;;;;;;;;;;;4.86;51.68;98953.06;4860175;29;19969;-66
2022/03/08 09:38:31;;;;;;;;;;;;;;;4.85;53.98;98959.72;4860153;29;19954;-66
2022/03/08 09:41:00;;;;;;;;;;;;;;;5.07;49.50;98970.38;4854961;29;19954;-66
2022/03/08 09:43:28;;;;;;;;;;;;;;;5.18;51.00;98960.44;4860946;29;19952;-66
2022/03/08 09:45:56;;;;;;;;;;;;;;;5.15;47.34;98968.66;4858879;29;19958;-66
2022/03/08 09:48:23;;;;;;;;;;;;;;;5.22;49.85;98978.00;4875734;29;19996;-66
2022/03/08 09:50:51;;;;;;;;;;;;;;;5.36;50.03;98968.53;4865023;29;20253;-66
2022/03/08 09:53:19;;;;;;;;;;;;;;;5.66;48.41;98970.72;4860367;29;19960;-66
2022/03/08 09:55:46;;;;;;;;;;;;;;;5.63;48.40;98971.41;4854787;29;19976;-66
2022/03/08 09:58:13;;;;;;;;;;;;;;;5.92;47.71;98962.00;4864897;29;19977;-66
2022/03/08 10:00:41;;;;;;;;;;;;;;;6.29;47.94;98963.50;4870839;29;19978;-66
2022/03/08 10:03:10;;;;;;;;;;;;;;;6.51;45.87;98960.16;4855341;29;20232;-66
2022/03/08 10:05:40;;;;;;;;;;;;;;;6.55;45.94;98963.03;4866975;29;19957;-66
2022/03/08 10:08:13;;;;;;;;;;;;;;;6.38;45.37;98964.13;4852056;29;19969;-66
2022/03/08 10:10:48;;;;;;;;;;;;;;;6.41;42.30;98966.22;4860443;29;19966;-66
2022/03/08 10:13:22;;;;;;;;;;;;;;;6.52;44.82;98964.56;4864043;29;19962;-66
2022/03/08 10:16:06;;;;;;;;;;;;;;;6.26;45.84;98955.88;4858046;29;19969;-66
2022/03/08 10:18:35;;;;;;;;;;;;;;;6.39;48.01;98962.19;4869200;29;20249;-66
2022/03/08 10:21:03;;;;;;;;;;;;;;;6.63;45.78;98962.06;4866464;29;20342;-66
2022/03/08 10:23:41;;;;;;;;;;;;;;;7.03;43.95;98962.75;4858580;29;19961;-66
2022/03/08 10:26:11;;;;;;;;;;;;;;;6.87;44.34;98953.56;4866586;29;20281;-66
2022/03/08 10:28:49;;;;;;;;;;;;;;;6.66;45.04;98966.91;4857380;29;19974;-66
2022/03/08 10:31:16;;;;;;;;;;;;;;;6.44;43.26;98950.81;4866530;29;19952;-66
2022/03/08 10:33:45;;;;;;;;;;;;;;;6.81;42.65;98956.97;4873320;29;19963;-66
2022/03/08 10:36:23;;;;;;;;;;;;;;;6.74;44.39;98957.59;4869625;29;19960;-66
2022/03/08 10:39:03;;;;;;;;;;;;;;;6.87;43.39;98961.13;4866703;29;19955;-66
2022/03/08 10:41:30;;;;;;;;;;;;;;;6.46;45.49;98954.84;4866594;29;19952;-66
2022/03/08 10:43:58;;;;;;;;;;;;;;;6.67;44.53;98951.03;4864871;29;19966;-66
2022/03/08 10:46:26;;;;;;;;;;;;;;;6.82;44.07;98959.41;4859220;29;20338;-66
2022/03/08 10:48:54;;;;;;;;;;;;;;;6.97;42.18;98947.47;4855477;29;19977;-66
2022/03/08 10:51:22;;;;;;;;;;;;;;;6.86;43.55;98949.19;4863717;29;19956;-66
2022/03/08 10:53:49;;;;;;;;;;;;;;;6.98;45.15;98954.66;4864932;29;20279;-66
2022/03/08 10:56:22;;;;;;;;;;;;;;;7.08;44.36;98939.41;4858380;29;19962;-66
2022/03/08 10:58:53;;;;;;;;;;;;;;;7.01;44.67;98951.16;4858703;29;20287;-66
2022/03/08 11:01:20;;;;;;;;;;;;;;;7.30;42.31;98944.34;4862317;29;20345;-66
2022/03/08 11:03:54;;;;;;;;;;;;;;;7.11;43.04;98928.38;4860864;29;19978;-66
2022/03/08 11:06:23;;;;;;;;;;;;;;;7.34;43.18;98945.22;4867596;29;19954;-66
2022/03/08 11:08:51;;;;;;;;;;;;;;;6.94;44.07;98948.22;4865629;29;20366;-66
2022/03/08 11:11:19;;;;;;;;;;;;;;;7.10;47.81;98937.88;4870207;29;19958;-66
2022/03/08 11:13:50;;;;;;;;;;;;;;;6.94;43.10;98936.28;4872837;29;19960;-66
2022/03/08 11:18:54;;;;;;;;;;;;;;;7.43;44.24;98933.91;4843395;29;19955;-66
2022/03/08 11:21:23;;;;;;;;;;;;;;;7.46;45.11;98936.75;4864355;29;19956;-66
2022/03/08 11:23:54;;;;;;;;;;;;;;;7.32;45.89;98924.47;4865323;29;20021;-66
2022/03/08 11:26:22;;;;;;;;;;;;;;;7.26;43.29;98930.31;4864847;29;19956;-66
2022/03/08 11:28:49;;;;;;;;;;;;;;;7.38;43.30;98926.66;4865210;29;20010;-66
2022/03/08 11:31:18;;;;;;;;;;;;;;;7.05;44.03;98927.03;4865631;29;19948;-66
2022/03/08 11:33:58;;;;;;;;;;;;;;;6.85;44.27;98928.09;4865059;29;19959;-66
2022/03/08 11:36:31;;;;;;;;;;;;;;;6.90;44.35;98930.63;4863121;29;19953;-66
2022/03/08 11:39:18;;;;;;;;;;;;;;;7.04;47.34;98930.97;4858269;29;19955;-66
2022/03/08 11:41:56;;;;;;;;;;;;;;;7.16;46.36;98918.97;4864710;29;19952;-66
2022/03/08 11:44:26;;;;;;;;;;;;;;;7.67;45.49;98928.09;4865507;29;19955;-66
2022/03/08 11:46:59;;;;;;;;;;;;;;;7.62;43.44;98931.16;4865070;29;20214;-66
2022/03/08 11:49:45;;;;;;;;;;;;;;;7.64;44.64;98912.13;4849076;29;19990;-66
2022/03/08 11:52:13;;;;;;;;;;;;;;;7.49;44.15;98913.78;4854334;29;20338;-66
2022/03/08 11:54:40;;;;;;;;;;;;;;;7.60;44.60;98903.72;4864802;29;20209;-66
2022/03/08 11:57:07;;;;;;;;;;;;;;;7.74;44.49;98908.78;4865431;29;20352;-66
2022/03/08 11:59:35;;;;;;;;;;;;;;;7.75;45.35;98907.63;4865433;29;19957;-66
2022/03/08 12:02:03;;;;;;;;;;;;;;;7.32;43.31;98905.81;4864596;29;19954;-66
2022/03/08 12:04:42;;;;;;;;;;;;;;;7.41;44.10;98900.09;4866011;29;19960;-66
2022/03/08 12:07:23;;;;;;;;;;;;;;;7.57;43.95;98895.28;4865546;29;19954;-66
2022/03/08 12:10:10;;;;;;;;;;;;;;;7.68;46.74;98899.09;4866057;29;19964;-66
2022/03/08 12:12:41;;;;;;;;;;;;;;;7.71;44.51;98907.53;4864594;29;19947;-66
2022/03/08 12:15:08;;;;;;;;;;;;;;;7.79;44.65;98900.13;4864539;29;19952;-66
2022/03/08 12:17:36;;;;;;;;;;;;;;;7.66;43.57;98898.66;4864080;29;19959;-66
2022/03/08 12:20:12;;;;;;;;;;;;;;;7.11;44.41;98888.63;4865089;29;19949;-66
2022/03/08 12:22:40;;;;;;;;;;;;;;;7.29;46.69;98896.22;4864749;29;19957;-66
2022/03/08 12:25:13;;;;;;;;;;;;;;;7.21;45.62;98893.66;4865189;29;19984;-66
2022/03/08 12:27:47;;;;;;;;;;;;;;;7.34;44.64;98888.75;4864986;29;19959;-66
2022/03/08 12:30:15;;;;;;;;;;;;;;;7.41;45.28;98886.16;4865085;29;19967;-66
2022/03/08 12:32:43;;;;;;;;;;;;;;;7.32;44.71;98889.13;4865221;29;19953;-66
2022/03/08 12:35:10;;;;;;;;;;;;;;;7.49;44.37;98890.69;4861809;29;19949;-66
2022/03/08 12:37:46;;;;;;;;;;;;;;;7.55;45.09;98884.50;4854683;29;19954;-66
2022/03/08 12:40:19;;;;;;;;;;;;;;;7.51;45.89;98891.16;4856911;29;19956;-66
2022/03/08 12:42:51;;;;;;;;;;;;;;;7.55;45.67;98880.91;4860262;29;19953;-66
2022/03/08 12:45:18;;;;;;;;;;;;;;;7.64;45.00;98878.72;4855132;29;19982;-66
2022/03/08 12:47:46;;;;;;;;;;;;;;;7.45;44.03;98885.06;4856571;29;20357;-66
2022/03/08 12:50:15;;;;;;;;;;;;;;;7.53;46.58;98883.25;4857117;29;19994;-66
2022/03/08 12:52:45;;;;;;;;;;;;;;;7.49;46.13;98882.34;4854432;29;19955;-66
2022/03/08 12:55:23;;;;;;;;;;;;;;;7.41;45.28;98872.25;4855911;29;19974;-66
2022/03/08 12:57:55;;;;;;;;;;;;;;;7.60;46.13;98875.06;4856475;29;20363;-66
2022/03/08 13:00:26;;;;;;;;;;;;;;;7.35;45.53;98880.06;4857293;29;19963;-66
2022/03/08 13:02:53;;;;;;;;;;;;;;;7.57;46.85;98876.59;4862663;29;19952;-66
2022/03/08 13:05:40;;;;;;;;;;;;;;;7.28;45.08;98877.94;4863167;29;20211;-66
2022/03/08 13:08:12;;;;;;;;;;;;;;;7.33;45.23;98876.03;4861555;29;20342;-66
2022/03/08 13:10:50;;;;;;;;;;;;;;;7.37;46.18;98874.13;4863281;29;19994;-66
2022/03/08 13:13:38;;;;;;;;;;;;;;;7.52;44.98;98868.53;4864284;29;19956;-66
2022/03/08 13:16:06;;;;;;;;;;;;;;;7.56;46.98;98868.59;4864137;29;19949;-68
2022/03/08 13:18:36;;;;;;;;;;;;;;;7.29;46.18;98875.94;4846379;29;19955;-68
2022/03/08 13:21:08;;;;;;;;;;;;;;;7.23;46.26;98864.31;4852074;29;19956;-66
2022/03/08 13:23:38;;;;;;;;;;;;;;;7.34;46.78;98870.09;4845759;29;20279;-66
2022/03/08 13:26:06;;;;;;;;;;;;;;;7.47;46.25;98860.47;4855018;29;19976;-66
2022/03/08 13:28:35;;;;;;;;;;;;;;;7.29;46.75;98862.84;4861415;29;19962;-66
2022/03/08 13:31:04;;;;;;;;;;;;;;;7.39;46.78;98858.69;4861613;29;19975;-66
2022/03/08 13:33:34;;;;;;;;;;;;;;;7.53;46.38;98858.22;4863987;29;20241;-66
2022/03/08 13:36:14;;;;;;;;;;;;;;;7.51;47.11;98866.09;4862819;29;19954;-66
2022/03/08 13:38:42;;;;;;;;;;;;;;;7.22;47.17;98857.13;4862744;29;19945;-66
2022/03/08 13:41:13;;;;;;;;;;;;;;;6.95;47.09;98848.91;4862658;29;20435;-67
2022/03/08 13:43:42;;;;;;;;;;;;;;;7.32;46.05;98849.38;4859562;29;19962;-66
2022/03/08 13:46:18;;;;;;;;;;;;;;;7.38;48.04;98847.94;4861682;29;19989;-66
2022/03/08 13:48:47;;;;;;;;;;;;;;;7.21;46.49;98846.38;4858901;29;19957;-66
2022/03/08 13:51:15;;;;;;;;;;;;;;;7.35;46.81;98843.91;4866528;29;20269;-66
2022/03/08 13:53:42;;;;;;;;;;;;;;;7.29;47.72;98848.94;4863560;29;19957;-66
2022/03/08 13:56:09;;;;;;;;;;;;;;;7.34;47.97;98845.06;4863983;29;19958;-66
2022/03/08 13:58:42;;;;;;;;;;;;;;;7.45;48.19;98848.91;4859845;29;19952;-66
2022/03/08 14:01:11;;;;;;;;;;;;;;;7.16;47.84;98850.22;4860381;29;19981;-66
2022/03/08 14:03:41;;;;;;;;;;;;;;;6.98;49.15;98842.63;4861648;29;19952;-66
2022/03/08 14:06:11;;;;;;;;;;;;;;;7.16;48.24;98847.44;4855060;29;19960;-66
2022/03/08 14:08:41;;;;;;;;;;;;;;;7.42;47.55;98840.47;4858481;29;19958;-66
2022/03/08 14:11:10;;;;;;;;;;;;;;;7.27;46.52;98842.13;4859137;29;19974;-66
2022/03/08 14:13:52;;;;;;;;;;;;;;;7.36;48.38;98850.28;4860930;29;19969;-66
2022/03/08 14:16:23;;;;;;;;;;;;;;;7.18;47.31;98842.34;4858429;29;20046;-66
2022/03/08 14:18:53;;;;;;;;;;;;;;;7.00;48.25;98843.88;4873435;29;19957;-66
2022/03/08 14:21:30;;;;;;;;;;;;;;;6.96;48.94;98839.41;4862213;29;20378;-66
2022/03/08 14:24:18;;;;;;;;;;;;;;;7.25;48.67;98831.38;4861750;29;19961;-66
2022/03/08 14:27:03;;;;;;;;;;;;;;;7.21;48.99;98836.03;4859303;29;20340;-66
2022/03/08 14:29:32;;;;;;;;;;;;;;;7.33;47.06;98843.47;4861457;29;19964;-66
2022/03/08 14:32:01;;;;;;;;;;;;;;;7.12;49.37;98838.22;4862126;29;19952;-66
2022/03/08 14:34:29;;;;;;;;;;;;;;;7.18;49.83;98834.00;4860915;29;19963;-66
2022/03/08 14:37:01;;;;;;;;;;;;;;;7.12;49.97;98843.78;4862834;29;19959;-66
2022/03/08 14:39:33;;;;;;;;;;;;;;;7.09;50.19;98844.50;4863151;29;19949;-66
2022/03/08 14:42:09;;;;;;;;;;;;;;;7.17;51.50;98840.72;4860286;29;19965;-66
2022/03/08 14:44:44;;;;;;;;;;;;;;;6.90;51.74;98840.84;4846410;29;19959;-66
2022/03/08 14:47:13;;;;;;;;;;;;;;;6.96;51.82;98840.22;4862031;29;19952;-66
2022/03/08 14:49:42;;;;;;;;;;;;;;;6.92;51.01;98836.53;4873056;29;19947;-66
2022/03/08 14:52:15;;;;;;;;;;;;;;;7.02;49.94;98835.97;4844481;29;19966;-66
2022/03/08 14:54:43;;;;;;;;;;;;;;;6.82;50.82;98851.00;4863313;29;19951;-66
2022/03/08 14:57:12;;;;;;;;;;;;;;;6.82;50.86;98841.84;4859997;29;19984;-66
2022/03/08 14:59:44;;;;;;;;;;;;;;;6.80;50.12;98844.19;4863531;29;19954;-66
2022/03/08 15:02:14;;;;;;;;;;;;;;;6.76;51.51;98837.72;4837125;29;19962;-65
2022/03/08 15:04:41;;;;;;;;;;;;;;;6.75;50.98;98838.91;4864451;29;19958;-66
2022/03/08 15:07:08;;;;;;;;;;;;;;;6.61;51.27;98833.78;4855996;29;19953;-66
2022/03/08 15:09:36;;;;;;;;;;;;;;;6.70;51.04;98839.19;4864322;29;20237;-66
2022/03/08 15:12:03;;;;;;;;;;;;;;;6.61;50.65;98845.72;4861841;29;19970;-66
2022/03/08 15:14:30;;;;;;;;;;;;;;;6.61;51.05;98842.94;4861538;29;20354;-66
2022/03/08 15:16:58;;;;;;;;;;;;;;;6.59;50.74;98845.28;4857884;29;19951;-66
2022/03/08 15:19:25;;;;;;;;;;;;;;;6.57;50.22;98839.28;4865993;29;19959;-66
2022/03/08 15:21:53;;;;;;;;;;;;;;;6.52;51.06;98847.06;4863875;29;19955;-66
2022/03/08 15:24:20;;;;;;;;;;;;;;;6.76;50.23;98846.88;4864562;29;20377;-66
2022/03/08 15:26:47;;;;;;;;;;;;;;;6.60;51.54;98843.31;4865539;29;20376;-66
2022/03/08 15:29:19;;;;;;;;;;;;;;;6.78;51.68;98846.50;4864794;29;19951;-66
2022/03/08 15:31:46;;;;;;;;;;;;;;;6.72;51.04;98843.22;4856825;29;19968;-66
2022/03/08 15:34:14;;;;;;;;;;;;;;;6.68;51.60;98842.28;4863159;29;19954;-66
2022/03/08 15:36:41;;;;;;;;;;;;;;;6.64;52.04;98838.63;4863129;29;20352;-66
2022/03/08 15:39:08;;;;;;;;;;;;;;;6.75;52.72;98847.25;4866066;29;19960;-66
2022/03/08 15:41:36;;;;;;;;;;;;;;;6.77;50.94;98851.28;4864556;29;19957;-66
2022/03/08 15:44:06;;;;;;;;;;;;;;;6.56;52.01;98850.72;4863892;29;20358;-66
2022/03/08 15:46:33;;;;;;;;;;;;;;;6.70;53.45;98847.50;4865676;29;19954;-66
2022/03/08 15:49:01;;;;;;;;;;;;;;;6.63;50.67;98853.69;4864714;29;19949;-66
2022/03/08 15:51:29;;;;;;;;;;;;;;;6.53;50.51;98846.69;4862337;29;19972;-66
2022/03/08 15:53:56;;;;;;;;;;;;;;;6.47;51.36;98844.53;4864582;29;19956;-66
2022/03/08 15:56:26;;;;;;;;;;;;;;;6.39;52.62;98854.66;4864129;29;19947;-66
2022/03/08 15:58:53;;;;;;;;;;;;;;;6.43;52.52;98857.53;4863451;29;20365;-66
2022/03/08 16:01:22;;;;;;;;;;;;;;;6.44;53.25;98846.06;4861554;29;19956;-66
2022/03/08 16:03:49;;;;;;;;;;;;;;;6.36;53.62;98852.59;4855689;29;19984;-66
2022/03/08 16:06:17;;;;;;;;;;;;;;;6.51;52.49;98856.53;4864673;29;19955;-66
2022/03/08 16:08:44;;;;;;;;;;;;;;;6.40;53.51;98859.06;4859625;29;20268;-66
2022/03/08 16:11:11;;;;;;;;;;;;;;;6.39;54.35;98862.19;4864002;29;19976;-66
2022/03/08 16:13:38;;;;;;;;;;;;;;;6.32;54.27;98851.69;4866340;29;19959;-66
2022/03/08 16:16:06;;;;;;;;;;;;;;;6.25;55.75;98859.03;4864786;29;19951;-66
2022/03/08 16:18:33;;;;;;;;;;;;;;;6.30;56.31;98862.38;4861102;29;19958;-67
2022/03/08 16:21:02;;;;;;;;;;;;;;;6.29;56.87;98871.03;4862160;29;19957;-66
2022/03/08 16:23:31;;;;;;;;;;;;;;;6.15;55.08;98865.91;4863380;29;19954;-66
2022/03/08 16:25:58;;;;;;;;;;;;;;;6.11;55.25;98858.66;4854618;29;19990;-66
2022/03/08 16:28:26;;;;;;;;;;;;;;;6.11;56.19;98861.44;4864130;29;20346;-66
2022/03/08 16:30:53;;;;;;;;;;;;;;;6.10;55.65;98862.56;4864508;29;19963;-66
2022/03/08 16:33:20;;;;;;;;;;;;;;;6.16;54.65;98867.50;4864086;29;19958;-66
2022/03/08 16:35:48;;;;;;;;;;;;;;;6.10;54.00;98871.72;4862896;29;19963;-66
2022/03/08 16:38:15;;;;;;;;;;;;;;;6.09;54.25;98869.31;4862796;29;19964;-66
2022/03/08 16:40:42;;;;;;;;;;;;;;;6.08;54.26;98862.13;4869737;29;20258;-66
2022/03/08 16:43:12;;;;;;;;;;;;;;;6.06;53.83;98873.59;4863758;29;19946;-66
2022/03/08 16:45:40;;;;;;;;;;;;;;;6.04;54.33;98869.56;4864582;29;19957;-66
2022/03/08 16:48:07;;;;;;;;;;;;;;;6.03;54.73;98879.03;4865473;29;19958;-66
2022/03/08 16:50:35;;;;;;;;;;;;;;;6.03;53.69;98877.06;4860134;29;19958;-66
2022/03/08 16:53:02;;;;;;;;;;;;;;;5.91;54.93;98877.13;4863839;29;19959;-66
2022/03/08 16:55:31;;;;;;;;;;;;;;;5.83;54.94;98878.84;4864288;29;20255;-66
2022/03/08 16:57:59;;;;;;;;;;;;;;;5.77;55.54;98874.69;4864467;29;19957;-66
2022/03/08 17:00:28;;;;;;;;;;;;;;;5.75;55.68;98884.53;4863961;29;19967;-66
2022/03/08 17:02:58;;;;;;;;;;;;;;;5.70;56.25;98887.56;4864553;29;19947;-66
2022/03/08 17:05:26;;;;;;;;;;;;;;;5.54;56.16;98890.28;4870579;29;19955;-66
2022/03/08 17:07:55;;;;;;;;;;;;;;;5.47;56.53;98884.53;4860587;29;20248;-66
2022/03/08 17:10:34;;;;;;;;;;;;;;;5.46;57.79;98894.00;4859967;29;19959;-66
2022/03/08 17:13:01;;;;;;;;;;;;;;;5.39;57.90;98885.44;4863125;29;19981;-66
2022/03/08 17:15:28;;;;;;;;;;;;;;;5.32;58.29;98890.78;4863791;29;20231;-66
2022/03/08 17:17:56;;;;;;;;;;;;;;;5.28;57.73;98889.88;4863928;29;19960;-66
2022/03/08 17:20:23;;;;;;;;;;;;;;;5.21;58.95;98892.41;4857710;29;19949;-66
2022/03/08 17:22:50;;;;;;;;;;;;;;;5.15;59.30;98888.25;4863783;29;19962;-66
2022/03/08 17:25:18;;;;;;;;;;;;;;;5.05;60.28;98892.31;4864173;29;19986;-66
2022/03/08 17:27:45;;;;;;;;;;;;;;;4.96;61.12;98896.34;4864032;29;19987;-66
2022/03/08 17:30:13;;;;;;;;;;;;;;;4.89;61.52;98891.38;4864091;29;20033;-66
2022/03/08 17:32:40;;;;;;;;;;;;;;;4.81;62.63;98885.97;4863048;29;19976;-66
2022/03/08 17:35:08;;;;;;;;;;;;;;;4.79;62.83;98891.03;4864560;29;19948;-66
2022/03/08 17:37:36;;;;;;;;;;;;;;;4.72;63.00;98897.13;4864083;29;19956;-66
2022/03/08 17:40:04;;;;;;;;;;;;;;;4.66;63.38;98895.75;4866726;29;20271;-66
2022/03/08 17:42:32;;;;;;;;;;;;;;;4.59;63.62;98896.34;4862525;29;21250;-66
2022/03/08 17:44:59;;;;;;;;;;;;;;;4.54;64.29;98893.78;4864426;29;19955;-66
2022/03/08 17:47:27;;;;;;;;;;;;;;;4.50;64.18;98898.38;4847723;29;20271;-66
2022/03/08 17:49:54;;;;;;;;;;;;;;;4.46;65.33;98904.94;4855372;29;19949;-66
2022/03/08 17:52:23;;;;;;;;;;;;;;;4.42;64.96;98906.81;4856878;29;19965;-66
2022/03/08 17:54:51;;;;;;;;;;;;;;;4.37;65.74;98913.38;4864364;29;19954;-66
2022/03/08 17:57:19;;;;;;;;;;;;;;;4.36;65.14;98908.97;4864670;29;20255;-66
2022/03/08 17:59:49;;;;;;;;;;;;;;;4.35;65.86;98906.56;4856519;29;19957;-66
2022/03/08 18:02:18;;;;;;;;;;;;;;;4.32;65.29;98915.53;4862873;29;19964;-66
2022/03/08 18:04:45;;;;;;;;;;;;;;;4.26;65.39;98923.25;4862877;29;20301;-66
2022/03/08 18:07:14;;;;;;;;;;;;;;;4.26;65.98;98911.34;4859654;29;19954;-66
2022/03/08 18:09:42;;;;;;;;;;;;;;;4.24;66.09;98914.47;4863296;29;19963;-66
2022/03/08 18:12:09;;;;;;;;;;;;;;;4.21;66.29;98915.16;4868420;29;20375;-66
2022/03/08 18:14:37;;;;;;;;;;;;;;;4.19;66.60;98914.69;4863324;29;19951;-66
2022/03/08 18:17:04;;;;;;;;;;;;;;;4.14;66.88;98920.44;4862627;29;19961;-66
2022/03/08 18:19:32;;;;;;;;;;;;;;;4.14;66.64;98914.06;4863314;29;19956;-66
2022/03/08 18:22:00;;;;;;;;;;;;;;;4.15;67.02;98922.06;4862895;29;19949;-66
2022/03/08 18:24:28;;;;;;;;;;;;;;;4.15;67.40;98924.84;4859665;29;19982;-66
2022/03/08 18:26:56;;;;;;;;;;;;;;;4.14;67.30;98925.16;4863900;29;19959;-66
2022/03/08 18:29:23;;;;;;;;;;;;;;;4.10;67.74;98927.81;4864901;29;19949;-66
2022/03/08 18:31:54;;;;;;;;;;;;;;;4.06;68.16;98937.91;4866605;29;19973;-66
2022/03/08 18:34:22;;;;;;;;;;;;;;;4.04;68.99;98931.91;4864432;29;19953;-66
2022/03/08 18:36:51;;;;;;;;;;;;;;;3.99;69.42;98929.34;4865543;29;19972;-66
2022/03/08 18:39:18;;;;;;;;;;;;;;;4.03;68.87;98933.09;4865703;29;19965;-66
2022/03/08 18:41:46;;;;;;;;;;;;;;;4.02;68.79;98937.00;4863980;29;19954;-66
2022/03/08 18:44:13;;;;;;;;;;;;;;;4.06;69.12;98940.69;4848305;29;20339;-66
2022/03/08 18:46:42;;;;;;;;;;;;;;;4.10;67.80;98946.38;4865037;29;19953;-66
2022/03/08 18:49:10;;;;;;;;;;;;;;;4.09;68.91;98942.78;4864999;29;19961;-66
2022/03/08 18:51:38;;;;;;;;;;;;;;;4.06;68.56;98942.66;4865609;29;19957;-66
2022/03/08 18:54:05;;;;;;;;;;;;;;;4.02;68.37;98950.00;4864626;29;19958;-66
2022/03/08 18:56:34;;;;;;;;;;;;;;;3.99;68.84;98959.78;4862973;29;19965;-66
2022/03/08 18:59:02;;;;;;;;;;;;;;;4.03;68.72;98954.41;4864904;29;20242;-66
2022/03/08 19:01:29;;;;;;;;;;;;;;;4.07;67.76;98955.34;4865644;29;19953;-66
2022/03/08 19:03:59;;;;;;;;;;;;;;;4.12;67.39;98961.47;4860558;29;20248;-66
2022/03/08 19:06:27;;;;;;;;;;;;;;;4.14;66.91;98956.41;4865539;29;19956;-66
2022/03/08 19:08:56;;;;;;;;;;;;;;;4.19;66.50;98956.19;4857785;29;19956;-66
2022/03/08 19:11:24;;;;;;;;;;;;;;;4.19;66.58;98956.19;4864852;29;19961;-66
2022/03/08 19:13:52;;;;;;;;;;;;;;;4.18;66.64;98951.81;4862124;29;19972;-66
2022/03/08 19:16:22;;;;;;;;;;;;;;;4.19;66.57;98950.66;4862963;29;19962;-66
2022/03/08 19:18:51;;;;;;;;;;;;;;;4.17;66.51;98955.75;4861854;29;19971;-66
2022/03/08 19:21:20;;;;;;;;;;;;;;;4.15;65.83;98962.75;4864680;29;19958;-66
2022/03/08 19:23:48;;;;;;;;;;;;;;;4.13;65.70;98963.13;4864134;29;19957;-66
2022/03/08 19:26:16;;;;;;;;;;;;;;;4.11;66.03;98964.59;4871518;29;19981;-66
2022/03/08 19:28:43;;;;;;;;;;;;;;;4.07;66.99;98969.19;4862095;29;19967;-66
2022/03/08 19:31:11;;;;;;;;;;;;;;;4.11;67.92;98967.38;4861473;29;19967;-66
2022/03/08 19:33:38;;;;;;;;;;;;;;;4.01;68.12;98963.03;4860155;29;19985;-66
2022/03/08 19:36:09;;;;;;;;;;;;;;;3.92;68.05;98960.34;4847198;29;19969;-66